createdAt,value
2018-08-22T00:04:09.345Z,57.00
2018-08-22T00:09:12.546Z,57.30
2018-08-22T00:14:15.517Z,57.70
2018-08-22T00:19:18.504Z,58.00
2018-08-22T00:24:21.475Z,58.20
2018-08-22T00:29:24.388Z,58.50
2018-08-22T00:34:27.335Z,58.80
2018-08-22T00:39:30.303Z,59.30
2018-08-22T00:44:33.252Z,59.60
2018-08-22T00:49:36.378Z,59.90
2018-08-22T00:54:39.493Z,60.00
2018-08-22T00:59:42.711Z,60.30
2018-08-22T01:04:45.641Z,60.70
2018-08-22T01:09:48.811Z,60.70
2018-08-22T01:14:52.220Z,60.60
2018-08-22T01:19:55.112Z,60.70
2018-08-22T01:24:58.224Z,60.90
2018-08-22T01:30:01.214Z,61.20
2018-08-22T01:35:04.562Z,61.60
2018-08-22T01:40:07.669Z,61.90
2018-08-22T01:45:10.646Z,62.20
2018-08-22T01:50:13.748Z,62.60
2018-08-22T01:55:16.754Z,62.80
2018-08-22T02:00:19.682Z,63.20
2018-08-22T02:05:23.090Z,63.40
2018-08-22T02:10:26.290Z,63.80
2018-08-22T02:15:29.408Z,64.10
2018-08-22T02:20:32.622Z,64.70
2018-08-22T02:25:35.649Z,64.60
2018-08-22T02:30:38.835Z,65.00
2018-08-22T02:35:41.789Z,65.20
2018-08-22T02:40:44.748Z,65.20
2018-08-22T02:45:47.881Z,65.10
2018-08-22T02:50:51.148Z,65.30
2018-08-22T02:55:54.119Z,65.50
2018-08-22T03:00:57.078Z,66.50
2018-08-22T03:06:00.212Z,66.20
2018-08-22T03:11:03.473Z,66.70
2018-08-22T03:16:06.744Z,66.50
2018-08-22T03:21:09.704Z,66.80
2018-08-22T03:26:12.740Z,67.30
2018-08-22T03:31:15.651Z,67.30
2018-08-22T03:36:18.617Z,67.60
2018-08-22T03:41:21.816Z,68.00
2018-08-22T03:46:24.837Z,68.00
2018-08-22T03:51:27.768Z,69.30
2018-08-22T03:56:31.252Z,69.50
2018-08-22T04:01:34.212Z,69.20
2018-08-22T04:06:37.448Z,69.30
2018-08-22T04:11:40.647Z,69.50
2018-08-22T04:16:43.608Z,69.80
2018-08-22T04:21:46.767Z,70.20
2018-08-22T04:26:50.025Z,70.50
2018-08-22T04:31:52.977Z,70.70
2018-08-22T04:36:56.179Z,70.60
2018-08-22T04:41:59.155Z,70.90
2018-08-22T04:47:02.132Z,71.00
2018-08-22T04:52:05.318Z,70.90
2018-08-22T04:57:08.290Z,70.60
2018-08-22T05:02:11.336Z,70.10
2018-08-22T05:07:14.515Z,69.30
2018-08-22T05:12:17.724Z,68.50
2018-08-22T05:17:20.763Z,67.60
2018-08-22T05:22:23.939Z,65.80
2018-08-22T05:27:27.166Z,62.10
2018-08-22T05:32:30.453Z,60.10
2018-08-22T05:37:33.404Z,59.00
2018-08-22T05:42:36.365Z,57.30
2018-08-22T05:47:39.648Z,57.00
2018-08-22T05:52:42.779Z,55.00
2018-08-22T05:57:45.991Z,54.50
2018-08-22T06:02:49.089Z,52.20
2018-08-22T06:07:52.104Z,52.30
2018-08-22T06:12:55.311Z,52.80
2018-08-22T06:17:58.300Z,51.40
2018-08-22T06:23:01.438Z,49.70
2018-08-22T06:28:04.484Z,48.80
2018-08-22T06:33:07.837Z,48.00
2018-08-22T06:38:10.749Z,47.30
2018-08-22T06:43:14.072Z,47.30
2018-08-22T06:48:17.081Z,47.10
2018-08-22T06:53:20.028Z,46.00
2018-08-22T06:58:23.270Z,45.00
2018-08-22T07:03:26.257Z,43.80
2018-08-22T07:08:29.212Z,44.30
2018-08-22T07:13:32.396Z,44.30
2018-08-22T07:18:35.489Z,44.40
2018-08-22T07:23:39.187Z,43.50
2018-08-22T07:28:42.408Z,43.30
2018-08-22T07:33:45.392Z,44.30
2018-08-22T07:38:49.009Z,45.20
2018-08-22T07:43:52.116Z,44.40
2018-08-22T07:48:55.285Z,44.60
2018-08-22T07:53:58.360Z,45.40
2018-08-22T07:59:10.371Z,43.70
2018-08-22T08:04:13.348Z,43.40
2018-08-22T08:09:16.464Z,43.70
2018-08-22T08:14:19.712Z,41.00
2018-08-22T08:19:22.903Z,42.10
2018-08-22T08:24:25.890Z,43.20
2018-08-22T08:29:28.852Z,43.70
2018-08-22T08:34:32.009Z,41.40
2018-08-22T08:39:35.192Z,41.20
2018-08-22T08:44:38.057Z,41.00
2018-08-22T08:49:41.107Z,38.90
2018-08-22T08:54:44.303Z,38.60
2018-08-22T08:59:47.342Z,40.00
2018-08-22T09:04:50.252Z,39.60
2018-08-22T09:09:53.315Z,40.40
2018-08-22T09:19:59.516Z,38.90
2018-08-22T09:25:02.708Z,37.90
2018-08-22T09:30:06.426Z,38.60
2018-08-22T09:35:09.556Z,38.30
2018-08-22T09:40:12.668Z,38.70
2018-08-22T09:45:15.735Z,38.50
2018-08-22T09:50:18.741Z,38.20
2018-08-22T09:55:21.715Z,37.20
2018-08-22T10:00:30.481Z,37.50
2018-08-22T10:05:33.565Z,37.70
2018-08-22T10:10:36.688Z,37.20
2018-08-22T10:15:39.883Z,37.60
2018-08-22T10:20:43.088Z,37.10
2018-08-22T10:25:46.187Z,36.60
2018-08-22T10:30:49.101Z,36.50
2018-08-22T10:35:52.072Z,36.20
2018-08-22T10:40:55.245Z,36.00
2018-08-22T10:45:58.452Z,35.30
2018-08-22T10:51:01.660Z,36.40
2018-08-22T10:56:04.857Z,36.00
2018-08-22T11:01:08.066Z,35.70
2018-08-22T11:06:11.052Z,34.40
2018-08-22T11:11:13.970Z,34.90
2018-08-22T11:16:17.181Z,33.70
2018-08-22T11:21:37.475Z,34.50
2018-08-22T11:26:57.860Z,33.20
2018-08-22T11:32:18.301Z,32.60
2018-08-22T11:37:21.341Z,32.30
2018-08-22T11:42:24.533Z,32.40
2018-08-22T11:47:27.800Z,31.00
2018-08-22T11:52:30.819Z,32.00
2018-08-22T11:57:33.780Z,32.70
2018-08-22T12:02:36.749Z,32.10
2018-08-22T12:07:39.689Z,31.80
2018-08-22T12:12:42.635Z,32.00
2018-08-22T12:17:45.726Z,32.00
2018-08-22T12:22:48.977Z,31.10
2018-08-22T12:27:52.038Z,31.70
2018-08-22T12:32:55.101Z,31.70
2018-08-22T12:37:58.520Z,30.20
2018-08-22T12:43:01.591Z,29.60
2018-08-22T12:48:05.242Z,29.90
2018-08-22T12:53:08.223Z,29.10
2018-08-22T12:58:11.337Z,27.90
2018-08-22T13:03:14.418Z,29.20
2018-08-22T13:08:17.747Z,29.40
2018-08-22T13:13:20.960Z,28.10
2018-08-22T13:18:23.981Z,28.40
2018-08-22T13:23:27.173Z,28.90
2018-08-22T13:28:31.022Z,28.70
2018-08-22T13:33:34.736Z,29.00
2018-08-22T13:38:38.047Z,27.50
2018-08-22T13:43:41.509Z,28.20
2018-08-22T13:48:44.856Z,29.90
2018-08-22T13:53:48.062Z,29.40
2018-08-22T13:58:51.380Z,29.60
2018-08-22T14:03:54.361Z,29.90
2018-08-22T14:08:57.376Z,31.40
2018-08-22T14:14:00.613Z,30.10
2018-08-22T14:19:03.661Z,28.30
2018-08-22T14:24:06.919Z,27.20
2018-08-22T14:29:10.116Z,28.00
2018-08-22T14:34:13.215Z,28.00
2018-08-22T14:39:16.357Z,28.20
2018-08-22T14:44:19.462Z,27.60
2018-08-22T14:49:22.662Z,29.10
2018-08-22T14:54:26.211Z,27.50
2018-08-22T14:59:29.219Z,28.40
2018-08-22T15:04:32.280Z,27.80
2018-08-22T15:09:35.297Z,27.20
2018-08-22T15:14:38.425Z,27.60
2018-08-22T15:19:41.422Z,28.00
2018-08-22T15:24:44.388Z,28.20
2018-08-22T15:29:47.646Z,27.70
2018-08-22T15:34:54.602Z,27.80
2018-08-22T15:39:57.801Z,27.80
2018-08-22T15:45:00.765Z,27.80
2018-08-22T15:50:04.973Z,28.50
2018-08-22T15:55:11.755Z,28.70
2018-08-22T16:00:34.915Z,28.80
2018-08-22T16:05:39.243Z,29.00
2018-08-22T16:10:42.464Z,29.30
2018-08-22T16:15:47.455Z,28.80
2018-08-22T16:20:59.436Z,28.80
2018-08-22T16:26:04.445Z,29.20
2018-08-22T16:31:07.507Z,29.30
2018-08-22T16:36:15.108Z,29.30
2018-08-22T16:41:18.368Z,29.50
2018-08-22T16:46:21.638Z,30.80
2018-08-22T16:51:25.193Z,29.50
2018-08-22T16:56:30.315Z,30.50
2018-08-22T17:01:33.590Z,29.60
2018-08-22T17:06:37.002Z,30.00
2018-08-22T17:11:40.250Z,29.70
2018-08-22T17:16:44.444Z,30.80
2018-08-22T17:21:47.657Z,30.20
2018-08-22T17:26:50.880Z,30.40
2018-08-22T17:32:03.668Z,29.60
2018-08-22T17:37:09.097Z,29.80
2018-08-22T17:42:12.372Z,30.30
2018-08-22T17:47:15.570Z,30.70
2018-08-22T17:52:18.661Z,31.40
2018-08-22T17:57:24.841Z,32.00
2018-08-22T18:02:28.000Z,32.30
2018-08-22T18:07:31.209Z,32.30
2018-08-22T18:12:34.243Z,32.80
2018-08-22T18:17:37.302Z,33.70
2018-08-22T18:22:41.317Z,35.00
2018-08-22T18:27:45.132Z,35.10
2018-08-22T18:32:48.142Z,36.30
2018-08-22T18:37:51.196Z,36.90
2018-08-22T18:42:58.855Z,36.70
2018-08-22T18:48:03.932Z,37.50
2018-08-22T18:53:06.974Z,38.70
2018-08-22T18:58:10.102Z,38.70
2018-08-22T19:03:13.231Z,38.90
2018-08-22T19:08:17.365Z,39.70
2018-08-22T19:13:22.525Z,40.30
2018-08-22T19:18:25.837Z,41.30
2018-08-22T19:23:29.442Z,42.20
2018-08-22T19:28:52.548Z,42.30
2018-08-22T19:33:56.052Z,42.90
2018-08-22T19:38:59.265Z,42.40
2018-08-22T19:44:03.271Z,42.80
2018-08-22T19:49:06.543Z,42.90
2018-08-22T19:54:09.908Z,42.20
2018-08-22T19:59:13.918Z,41.40
2018-08-22T20:04:17.095Z,42.20
2018-08-22T20:09:20.812Z,41.60
2018-08-22T20:14:24.188Z,42.20
2018-08-22T20:19:31.789Z,41.90
2018-08-22T20:24:34.978Z,42.90
2018-08-22T20:29:38.200Z,44.40
2018-08-22T20:34:41.535Z,45.10
2018-08-22T20:39:44.999Z,46.40
2018-08-22T20:44:48.249Z,45.60
2018-08-22T20:49:52.240Z,44.90
2018-08-22T20:55:00.954Z,45.30
2018-08-22T21:00:05.864Z,46.20
2018-08-22T21:05:09.160Z,46.70
2018-08-22T21:10:12.893Z,46.90
2018-08-22T21:15:16.211Z,47.30
2018-08-22T21:20:22.048Z,48.10
2018-08-22T21:25:25.247Z,49.30
2018-08-22T21:30:28.411Z,49.50
2018-08-22T21:35:31.717Z,50.30
2018-08-22T21:40:35.009Z,50.40
2018-08-22T21:45:38.194Z,50.20
2018-08-22T21:50:42.231Z,50.50
2018-08-22T21:55:49.148Z,50.80
2018-08-22T22:00:52.449Z,51.20
2018-08-22T22:05:57.475Z,51.40
2018-08-22T22:11:03.868Z,51.80
2018-08-22T22:16:07.628Z,52.30
2018-08-22T22:21:13.516Z,52.40
2018-08-22T22:26:17.803Z,52.60
2018-08-22T22:31:20.803Z,53.30
2018-08-22T22:36:24.048Z,53.50
2018-08-22T22:41:28.966Z,53.40
2018-08-22T22:46:31.911Z,52.90
2018-08-22T22:51:35.464Z,52.80
2018-08-22T22:56:38.604Z,53.70
2018-08-22T23:01:41.827Z,53.10
2018-08-22T23:06:44.793Z,53.10
2018-08-22T23:11:47.856Z,53.40
2018-08-22T23:16:51.019Z,53.70
2018-08-22T23:21:55.144Z,53.80
2018-08-22T23:26:58.116Z,54.00
2018-08-22T23:32:01.130Z,53.90
2018-08-22T23:37:04.239Z,54.60
2018-08-22T23:42:07.965Z,55.30
2018-08-22T23:47:11.216Z,56.00
2018-08-22T23:52:14.182Z,56.00
2018-08-22T23:57:21.175Z,56.20
